Дата Время Давление Темп. Влажн. Скор.ветра Напр.ветра Макс.ветер Осадки/час Осадки
18.06.21 21:00 753 23.2 49 1.9 179 3.8 0 0
18.06.21 20:00 753.3 25.2 42.6 2 188 3.6 0 0
18.06.21 19:00 752.9 27.8 37.6 1.3 193 4.2 0 0
18.06.21 18:00 752.5 28.4 33.7 1.3 183 4.7 0 0
18.06.21 17:00 752.7 28 36.4 1.5 196 4.7 0 0
18.06.21 16:00 752.3 28.9 34 1 211 4.8 0 0
18.06.21 15:00 752.5 28.1 35.6 2.3 158 5 0 0
18.06.21 14:00 753 27 34.7 1.7 133 5.3 0 0
18.06.21 13:00 752.8 27.5 31.8 1 215 5.7 0 0
18.06.21 12:00 752.6 27.3 33.9 1.1 94 4.3 0 0
18.06.21 11:00 753.1 26.3 36.5 1.6 128 4.4 0 0
18.06.21 10:00 753.3 25.1 36.4 1.3 177 4.6 0 0
18.06.21 09:00 753.6 22.6 43.1 2.1 181 4.4 0 0
18.06.21 08:00 754.7 19.8 53.8 1.2 194 4.4 0 0
18.06.21 07:00 754.6 17.5 62.1 1 179 2.2 0 0
18.06.21 06:00 754.8 14.6 78.6 0.7 12 1.2 0 0
18.06.21 05:00 754.5 13.3 80.5 0.7 27 1.4 0 0
18.06.21 04:00 754.3 13 80.8 0.6 0 1.3 0 0
18.06.21 03:00 754.3 13.4 79.3 0.6 356 1.3 0 0
18.06.21 02:00 753.9 15.5 66.8 0.7 332 2.4 0 0
18.06.21 01:00 753.5 16.3 63.1 0.7 87 2.1 0 0
18.06.21 00:00 753.2 17.1 59.9 0.8 71 2.3 0 0
17.06.21 23:00 752.8 18.7 53.9 1 68 2.4 0 0
17.06.21 22:00 752.8 19.5 52.1 1 54 2.2 0 0